sensor_id;sensor_type;location;lat;lon;timestamp;temperature;humidity
42905;DHT22;28550;51.228;4.528;2023-07-20T00:44:42;17.40;42.00
42905;DHT22;28550;51.228;4.528;2023-07-20T00:53:40;17.40;46.80
42905;DHT22;28550;51.228;4.528;2023-07-20T00:56:19;17.50;42.10
42905;DHT22;28550;51.228;4.528;2023-07-20T00:59:19;17.60;42.20
42905;DHT22;28550;51.228;4.528;2023-07-20T01:02:17;17.60;38.10
42905;DHT22;28550;51.228;4.528;2023-07-20T01:13:20;17.40;48.30
42905;DHT22;28550;51.228;4.528;2023-07-20T01:16:25;17.30;49.70
42905;DHT22;28550;51.228;4.528;2023-07-20T01:41:09;16.70;74.10
42905;DHT22;28550;51.228;4.528;2023-07-20T02:04:37;16.40;85.40
42905;DHT22;28550;51.228;4.528;2023-07-20T02:24:09;16.30;89.20
42905;DHT22;28550;51.228;4.528;2023-07-20T02:33:33;16.30;88.80
42905;DHT22;28550;51.228;4.528;2023-07-20T02:36:54;16.30;86.60
42905;DHT22;28550;51.228;4.528;2023-07-20T02:46:14;16.00;89.50
42905;DHT22;28550;51.228;4.528;2023-07-20T02:49:08;16.00;86.80
42905;DHT22;28550;51.228;4.528;2023-07-20T02:58:40;15.80;90.30
42905;DHT22;28550;51.228;4.528;2023-07-20T03:08:33;15.80;91.00
42905;DHT22;28550;51.228;4.528;2023-07-20T03:11:03;15.80;90.50
42905;DHT22;28550;51.228;4.528;2023-07-20T03:13:38;15.80;89.70
42905;DHT22;28550;51.228;4.528;2023-07-20T03:16:36;15.70;91.10
42905;DHT22;28550;51.228;4.528;2023-07-20T03:26:52;15.80;93.50
42905;DHT22;28550;51.228;4.528;2023-07-20T03:29:19;15.90;92.10
42905;DHT22;28550;51.228;4.528;2023-07-20T03:42:46;15.90;94.30
42905;DHT22;28550;51.228;4.528;2023-07-20T03:46:00;15.90;94.00
42905;DHT22;28550;51.228;4.528;2023-07-20T04:45:36;16.60;91.40
42905;DHT22;28550;51.228;4.528;2023-07-20T04:48:37;16.60;89.00
42905;DHT22;28550;51.228;4.528;2023-07-20T04:51:25;16.70;90.70
42905;DHT22;28550;51.228;4.528;2023-07-20T04:54:30;16.70;91.10
42905;DHT22;28550;51.228;4.528;2023-07-20T05:00:02;16.60;92.90
42905;DHT22;28550;51.228;4.528;2023-07-20T05:02:57;16.70;92.40
42905;DHT22;28550;51.228;4.528;2023-07-20T05:17:15;17.00;86.50
42905;DHT22;28550;51.228;4.528;2023-07-20T05:20:20;17.20;81.70
42905;DHT22;28550;51.228;4.528;2023-07-20T05:26:41;17.60;70.50
42905;DHT22;28550;51.228;4.528;2023-07-20T05:32:26;18.00;63.40
42905;DHT22;28550;51.228;4.528;2023-07-20T05:35:23;18.10;56.30
42905;DHT22;28550;51.228;4.528;2023-07-20T05:37:55;18.10;55.40
42905;DHT22;28550;51.228;4.528;2023-07-20T05:40:21;17.90;51.80
42905;DHT22;28550;51.228;4.528;2023-07-20T05:52:55;18.00;58.20
42905;DHT22;28550;51.228;4.528;2023-07-20T06:14:11;18.90;30.10
42905;DHT22;28550;51.228;4.528;2023-07-20T06:17:06;19.00;19.30
42905;DHT22;28550;51.228;4.528;2023-07-20T06:19:32;19.40;16.50
42905;DHT22;28550;51.228;4.528;2023-07-20T06:21:58;19.00;19.90
42905;DHT22;28550;51.228;4.528;2023-07-20T06:24:24;19.30;17.50
42905;DHT22;28550;51.228;4.528;2023-07-20T06:26:53;19.50;3.60
42905;DHT22;28550;51.228;4.528;2023-07-20T06:29:31;19.60;8.20
42905;DHT22;28550;51.228;4.528;2023-07-20T06:32:03;20.00;1.00
42905;DHT22;28550;51.228;4.528;2023-07-20T06:34:29;20.50;1.00
42905;DHT22;28550;51.228;4.528;2023-07-20T06:40:21;20.70;1.00
42905;DHT22;28550;51.228;4.528;2023-07-20T06:42:47;20.40;1.00
42905;DHT22;28550;51.228;4.528;2023-07-20T06:45:13;20.60;1.00
42905;DHT22;28550;51.228;4.528;2023-07-20T06:47:39;20.80;1.00
42905;DHT22;28550;51.228;4.528;2023-07-20T06:50:09;21.10;1.00
42905;DHT22;28550;51.228;4.528;2023-07-20T06:52:35;21.80;1.00
42905;DHT22;28550;51.228;4.528;2023-07-20T06:55:01;21.80;99.90
42905;DHT22;28550;51.228;4.528;2023-07-20T06:57:26;21.80;99.90
42905;DHT22;28550;51.228;4.528;2023-07-20T06:59:55;22.00;99.90
42905;DHT22;28550;51.228;4.528;2023-07-20T07:02:26;22.00;99.90
42905;DHT22;28550;51.228;4.528;2023-07-20T07:04:52;22.10;99.90
42905;DHT22;28550;51.228;4.528;2023-07-20T07:07:25;22.20;99.90
42905;DHT22;28550;51.228;4.528;2023-07-20T07:09:51;22.20;1.00
42905;DHT22;28550;51.228;4.528;2023-07-20T07:12:17;21.60;99.90
42905;DHT22;28550;51.228;4.528;2023-07-20T07:14:42;21.80;49.80
42905;DHT22;28550;51.228;4.528;2023-07-20T07:17:08;21.90;99.90
42905;DHT22;28550;51.228;4.528;2023-07-20T07:19:37;22.10;1.00
42905;DHT22;28550;51.228;4.528;2023-07-20T07:22:08;22.40;99.90
42905;DHT22;28550;51.228;4.528;2023-07-20T07:24:34;22.60;1.00
42905;DHT22;28550;51.228;4.528;2023-07-20T07:27:02;22.80;99.90
42905;DHT22;28550;51.228;4.528;2023-07-20T07:29:28;22.80;99.90
42905;DHT22;28550;51.228;4.528;2023-07-20T07:31:56;22.60;1.00
42905;DHT22;28550;51.228;4.528;2023-07-20T07:34:23;22.60;1.00
42905;DHT22;28550;51.228;4.528;2023-07-20T07:36:49;22.30;99.90
42905;DHT22;28550;51.228;4.528;2023-07-20T07:39:15;22.50;99.90
42905;DHT22;28550;51.228;4.528;2023-07-20T07:41:41;22.70;99.90
42905;DHT22;28550;51.228;4.528;2023-07-20T07:44:07;23.00;99.90
42905;DHT22;28550;51.228;4.528;2023-07-20T07:46:32;23.60;80.40
42905;DHT22;28550;51.228;4.528;2023-07-20T07:49:10;24.10;99.90
42905;DHT22;28550;51.228;4.528;2023-07-20T07:51:36;24.30;99.90
42905;DHT22;28550;51.228;4.528;2023-07-20T07:54:02;24.30;99.90
42905;DHT22;28550;51.228;4.528;2023-07-20T07:56:27;24.10;1.00
42905;DHT22;28550;51.228;4.528;2023-07-20T07:58:53;24.10;1.00
42905;DHT22;28550;51.228;4.528;2023-07-20T08:01:21;24.30;99.90
42905;DHT22;28550;51.228;4.528;2023-07-20T08:03:49;24.40;1.00
42905;DHT22;28550;51.228;4.528;2023-07-20T08:06:16;24.00;99.90
42905;DHT22;28550;51.228;4.528;2023-07-20T08:08:42;23.60;1.00
42905;DHT22;28550;51.228;4.528;2023-07-20T08:11:08;24.20;99.90
42905;DHT22;28550;51.228;4.528;2023-07-20T08:13:56;24.70;1.00
42905;DHT22;28550;51.228;4.528;2023-07-20T08:16:22;24.80;99.90
42905;DHT22;28550;51.228;4.528;2023-07-20T08:18:48;24.60;99.90
42905;DHT22;28550;51.228;4.528;2023-07-20T08:21:14;24.20;1.00
42905;DHT22;28550;51.228;4.528;2023-07-20T08:23:42;24.20;1.00
42905;DHT22;28550;51.228;4.528;2023-07-20T08:26:08;24.90;1.00
42905;DHT22;28550;51.228;4.528;2023-07-20T08:28:34;25.40;23.20
42905;DHT22;28550;51.228;4.528;2023-07-20T08:31:00;25.80;1.00
42905;DHT22;28550;51.228;4.528;2023-07-20T08:33:26;25.90;1.00
42905;DHT22;28550;51.228;4.528;2023-07-20T08:35:55;26.00;1.00
42905;DHT22;28550;51.228;4.528;2023-07-20T08:38:22;25.80;1.00
42905;DHT22;28550;51.228;4.528;2023-07-20T08:40:51;25.50;45.10
42905;DHT22;28550;51.228;4.528;2023-07-20T08:43:20;25.70;1.00
42905;DHT22;28550;51.228;4.528;2023-07-20T08:45:46;25.70;1.00
42905;DHT22;28550;51.228;4.528;2023-07-20T08:48:13;24.90;99.90
42905;DHT22;28550;51.228;4.528;2023-07-20T08:50:40;25.20;1.00
42905;DHT22;28550;51.228;4.528;2023-07-20T08:55:51;25.90;1.00
42905;DHT22;28550;51.228;4.528;2023-07-20T08:58:20;26.10;99.90
42905;DHT22;28550;51.228;4.528;2023-07-20T09:00:48;25.70;1.00
42905;DHT22;28550;51.228;4.528;2023-07-20T09:03:15;25.90;1.00
42905;DHT22;28550;51.228;4.528;2023-07-20T09:05:46;25.90;99.90
42905;DHT22;28550;51.228;4.528;2023-07-20T09:08:11;26.10;99.90
42905;DHT22;28550;51.228;4.528;2023-07-20T09:10:39;26.30;99.90
42905;DHT22;28550;51.228;4.528;2023-07-20T09:13:08;26.90;99.90
42905;DHT22;28550;51.228;4.528;2023-07-20T09:15:36;27.70;99.90
42905;DHT22;28550;51.228;4.528;2023-07-20T09:18:02;27.90;99.90
42905;DHT22;28550;51.228;4.528;2023-07-20T09:20:34;28.00;99.90
42905;DHT22;28550;51.228;4.528;2023-07-20T09:23:04;28.80;99.90
42905;DHT22;28550;51.228;4.528;2023-07-20T09:25:31;29.40;99.90
42905;DHT22;28550;51.228;4.528;2023-07-20T09:28:02;30.10;99.90
42905;DHT22;28550;51.228;4.528;2023-07-20T09:30:28;30.90;99.90
42905;DHT22;28550;51.228;4.528;2023-07-20T09:32:54;31.40;99.90
42905;DHT22;28550;51.228;4.528;2023-07-20T09:35:22;30.70;99.90
42905;DHT22;28550;51.228;4.528;2023-07-20T09:37:58;31.20;99.90
42905;DHT22;28550;51.228;4.528;2023-07-20T09:40:25;32.20;99.90
42905;DHT22;28550;51.228;4.528;2023-07-20T09:42:53;32.30;96.70
42905;DHT22;28550;51.228;4.528;2023-07-20T09:45:34;31.90;99.80
42905;DHT22;28550;51.228;4.528;2023-07-20T09:48:05;30.40;99.90
42905;DHT22;28550;51.228;4.528;2023-07-20T09:50:40;29.60;99.90
42905;DHT22;28550;51.228;4.528;2023-07-20T09:53:07;29.50;99.90
42905;DHT22;28550;51.228;4.528;2023-07-20T09:55:34;29.50;99.90
42905;DHT22;28550;51.228;4.528;2023-07-20T09:58:01;30.20;99.90
42905;DHT22;28550;51.228;4.528;2023-07-20T10:00:28;30.50;99.90
42905;DHT22;28550;51.228;4.528;2023-07-20T10:06:01;30.50;99.90
42905;DHT22;28550;51.228;4.528;2023-07-20T10:08:32;31.50;99.90
42905;DHT22;28550;51.228;4.528;2023-07-20T10:11:00;31.10;95.70
42905;DHT22;28550;51.228;4.528;2023-07-20T10:13:29;30.30;98.60
42905;DHT22;28550;51.228;4.528;2023-07-20T10:16:22;30.30;99.50
42905;DHT22;28550;51.228;4.528;2023-07-20T10:18:54;30.00;96.00
42905;DHT22;28550;51.228;4.528;2023-07-20T10:21:25;29.90;93.00
42905;DHT22;28550;51.228;4.528;2023-07-20T10:23:51;29.60;98.30
42905;DHT22;28550;51.228;4.528;2023-07-20T10:26:16;29.30;82.70
42905;DHT22;28550;51.228;4.528;2023-07-20T10:28:42;28.40;90.10
42905;DHT22;28550;51.228;4.528;2023-07-20T10:31:09;27.90;99.30
42905;DHT22;28550;51.228;4.528;2023-07-20T10:33:37;27.60;99.90
42905;DHT22;28550;51.228;4.528;2023-07-20T10:36:04;27.00;99.90
42905;DHT22;28550;51.228;4.528;2023-07-20T10:41:29;26.30;99.90
42905;DHT22;28550;51.228;4.528;2023-07-20T10:44:05;26.50;99.90
42905;DHT22;28550;51.228;4.528;2023-07-20T10:46:45;26.60;99.90
42905;DHT22;28550;51.228;4.528;2023-07-20T10:50:04;27.10;99.90
42905;DHT22;28550;51.228;4.528;2023-07-20T10:52:23;27.10;99.90
42905;DHT22;28550;51.228;4.528;2023-07-20T10:54:49;27.10;99.90
42905;DHT22;28550;51.228;4.528;2023-07-20T10:57:24;27.30;99.90
42905;DHT22;28550;51.228;4.528;2023-07-20T10:59:50;27.00;99.90
42905;DHT22;28550;51.228;4.528;2023-07-20T11:02:20;26.90;99.90
42905;DHT22;28550;51.228;4.528;2023-07-20T11:04:48;26.60;99.90
42905;DHT22;28550;51.228;4.528;2023-07-20T11:07:48;26.40;99.90
42905;DHT22;28550;51.228;4.528;2023-07-20T11:13:57;25.80;99.90
42905;DHT22;28550;51.228;4.528;2023-07-20T11:16:43;25.70;99.90
42905;DHT22;28550;51.228;4.528;2023-07-20T11:21:58;25.60;99.90
42905;DHT22;28550;51.228;4.528;2023-07-20T11:24:30;25.70;99.90
42905;DHT22;28550;51.228;4.528;2023-07-20T11:26:56;25.40;99.90
42905;DHT22;28550;51.228;4.528;2023-07-20T11:29:22;25.20;99.90
42905;DHT22;28550;51.228;4.528;2023-07-20T11:31:52;25.40;99.90
42905;DHT22;28550;51.228;4.528;2023-07-20T11:34:19;25.60;99.90
42905;DHT22;28550;51.228;4.528;2023-07-20T11:36:47;25.30;99.90
42905;DHT22;28550;51.228;4.528;2023-07-20T11:39:25;25.10;99.90
42905;DHT22;28550;51.228;4.528;2023-07-20T11:41:55;24.90;99.90
42905;DHT22;28550;51.228;4.528;2023-07-20T11:44:24;25.20;99.90
42905;DHT22;28550;51.228;4.528;2023-07-20T11:47:08;25.30;99.90
42905;DHT22;28550;51.228;4.528;2023-07-20T11:49:43;25.80;99.90
42905;DHT22;28550;51.228;4.528;2023-07-20T11:55:17;26.90;99.90
42905;DHT22;28550;51.228;4.528;2023-07-20T11:58:21;27.40;99.90
42905;DHT22;28550;51.228;4.528;2023-07-20T12:00:53;29.00;99.90
42905;DHT22;28550;51.228;4.528;2023-07-20T12:03:47;31.00;99.90
42905;DHT22;28550;51.228;4.528;2023-07-20T12:06:16;32.30;99.90
42905;DHT22;28550;51.228;4.528;2023-07-20T12:08:43;32.40;71.00
42905;DHT22;28550;51.228;4.528;2023-07-20T12:11:10;32.10;77.70
42905;DHT22;28550;51.228;4.528;2023-07-20T12:13:47;33.10;68.70
42905;DHT22;28550;51.228;4.528;2023-07-20T12:16:16;34.00;33.50
42905;DHT22;28550;51.228;4.528;2023-07-20T12:18:44;33.50;25.30
42905;DHT22;28550;51.228;4.528;2023-07-20T12:21:10;32.70;11.50
42905;DHT22;28550;51.228;4.528;2023-07-20T12:23:59;31.50;28.30
42905;DHT22;28550;51.228;4.528;2023-07-20T12:26:29;30.80;15.80
42905;DHT22;28550;51.228;4.528;2023-07-20T12:29:18;30.30;41.70
42905;DHT22;28550;51.228;4.528;2023-07-20T12:32:02;30.00;21.10
42905;DHT22;28550;51.228;4.528;2023-07-20T12:34:34;29.90;55.70
42905;DHT22;28550;51.228;4.528;2023-07-20T12:37:03;29.70;27.90
42905;DHT22;28550;51.228;4.528;2023-07-20T12:39:29;29.40;50.60
42905;DHT22;28550;51.228;4.528;2023-07-20T12:41:55;28.60;32.00
42905;DHT22;28550;51.228;4.528;2023-07-20T12:44:41;28.00;20.90
42905;DHT22;28550;51.228;4.528;2023-07-20T12:47:13;27.70;29.50
42905;DHT22;28550;51.228;4.528;2023-07-20T12:49:39;27.60;53.70
42905;DHT22;28550;51.228;4.528;2023-07-20T12:52:05;27.70;29.30
42905;DHT22;28550;51.228;4.528;2023-07-20T12:54:34;27.70;63.90
42905;DHT22;28550;51.228;4.528;2023-07-20T12:56:59;27.40;47.90
42905;DHT22;28550;51.228;4.528;2023-07-20T12:59:33;27.30;49.80
42905;DHT22;28550;51.228;4.528;2023-07-20T13:02:00;27.20;76.20
42905;DHT22;28550;51.228;4.528;2023-07-20T13:04:30;27.10;55.10
42905;DHT22;28550;51.228;4.528;2023-07-20T13:09:31;26.70;98.80
42905;DHT22;28550;51.228;4.528;2023-07-20T13:12:04;26.20;87.10
42905;DHT22;28550;51.228;4.528;2023-07-20T13:17:05;25.60;99.90
42905;DHT22;28550;51.228;4.528;2023-07-20T13:19:33;25.50;99.90
42905;DHT22;28550;51.228;4.528;2023-07-20T13:22:02;25.40;99.90
42905;DHT22;28550;51.228;4.528;2023-07-20T13:24:28;25.30;99.90
42905;DHT22;28550;51.228;4.528;2023-07-20T13:26:54;24.90;99.90
42905;DHT22;28550;51.228;4.528;2023-07-20T13:29:20;24.60;99.90
42905;DHT22;28550;51.228;4.528;2023-07-20T13:31:45;24.50;99.90
42905;DHT22;28550;51.228;4.528;2023-07-20T13:34:14;24.30;99.90
42905;DHT22;28550;51.228;4.528;2023-07-20T13:36:40;24.20;99.90
42905;DHT22;28550;51.228;4.528;2023-07-20T13:39:06;24.10;99.90
42905;DHT22;28550;51.228;4.528;2023-07-20T13:41:31;24.00;99.90
42905;DHT22;28550;51.228;4.528;2023-07-20T13:43:58;24.10;99.90
42905;DHT22;28550;51.228;4.528;2023-07-20T13:46:27;23.90;99.90
42905;DHT22;28550;51.228;4.528;2023-07-20T13:48:55;23.80;99.90
42905;DHT22;28550;51.228;4.528;2023-07-20T13:51:26;23.80;99.90
42905;DHT22;28550;51.228;4.528;2023-07-20T13:53:52;23.80;99.90
42905;DHT22;28550;51.228;4.528;2023-07-20T13:56:17;23.80;99.90
42905;DHT22;28550;51.228;4.528;2023-07-20T13:58:43;23.80;99.90
42905;DHT22;28550;51.228;4.528;2023-07-20T14:04:03;23.70;99.90
42905;DHT22;28550;51.228;4.528;2023-07-20T14:11:39;23.90;99.90
42905;DHT22;28550;51.228;4.528;2023-07-20T14:14:06;23.80;99.90
42905;DHT22;28550;51.228;4.528;2023-07-20T14:16:32;23.80;99.90
42905;DHT22;28550;51.228;4.528;2023-07-20T14:26:44;23.90;99.90
42905;DHT22;28550;51.228;4.528;2023-07-20T14:29:10;23.80;99.90
42905;DHT22;28550;51.228;4.528;2023-07-20T14:31:35;23.80;99.90
42905;DHT22;28550;51.228;4.528;2023-07-20T14:34:01;23.70;99.90
42905;DHT22;28550;51.228;4.528;2023-07-20T14:42:24;23.60;99.90
42905;DHT22;28550;51.228;4.528;2023-07-20T14:44:50;23.50;99.90
42905;DHT22;28550;51.228;4.528;2023-07-20T14:47:18;23.40;99.90
42905;DHT22;28550;51.228;4.528;2023-07-20T14:49:54;23.40;99.90
42905;DHT22;28550;51.228;4.528;2023-07-20T14:52:20;23.40;99.90
42905;DHT22;28550;51.228;4.528;2023-07-20T14:54:46;23.30;99.90
42905;DHT22;28550;51.228;4.528;2023-07-20T14:57:12;23.20;1.00
42905;DHT22;28550;51.228;4.528;2023-07-20T14:59:41;23.20;1.00
42905;DHT22;28550;51.228;4.528;2023-07-20T15:02:07;23.20;99.90
42905;DHT22;28550;51.228;4.528;2023-07-20T15:04:33;23.20;1.00
42905;DHT22;28550;51.228;4.528;2023-07-20T15:06:59;23.20;1.00
42905;DHT22;28550;51.228;4.528;2023-07-20T15:09:25;23.20;99.90
42905;DHT22;28550;51.228;4.528;2023-07-20T15:11:51;23.20;99.90
42905;DHT22;28550;51.228;4.528;2023-07-20T16:07:50;21.10;1.00
42905;DHT22;28550;51.228;4.528;2023-07-20T18:18:56;21.90;99.90
42905;DHT22;28550;51.228;4.528;2023-07-20T19:50:20;17.90;99.90
42905;DHT22;28550;51.228;4.528;2023-07-20T21:43:24;15.40;64.30
